Terminal Aerodrome Forecast
Issued by NWS

Home | Current Version | Previous Version | Text Only | Print | Product List | Glossary Off
Versions: 1 2 3 4 5 6 7 8 9 10 11 12 13 14 15

000
FTUS43 KMPX 242359
TAFRWF
TAF
KRWF 242359Z 2500/2524 29006KT P6SM OVC250
     FM251700 30012G18KT P6SM BKN100
     FM252200 30011KT P6SM SCT070=

USA.gov is the U.S. government's official web portal to all federal, state and local government web resources and services.